createdAt,value
2023-03-26T00:00:43.754Z,199
2023-03-26T00:01:52.994Z,205
2023-03-26T00:03:02.086Z,199
2023-03-26T00:04:10.312Z,229
2023-03-26T00:05:19.450Z,248
2023-03-26T00:06:28.614Z,249
2023-03-26T00:07:37.775Z,207
2023-03-26T00:08:46.991Z,180
2023-03-26T00:09:56.128Z,252
2023-03-26T00:11:05.307Z,186
2023-03-26T00:12:14.496Z,208
2023-03-26T00:13:23.653Z,208
2023-03-26T00:15:41.995Z,194
2023-03-26T00:16:51.168Z,199
2023-03-26T00:18:00.347Z,141
2023-03-26T00:19:08.531Z,195
2023-03-26T00:20:17.742Z,210
2023-03-26T00:21:26.879Z,202
2023-03-26T00:22:36.054Z,209
2023-03-26T00:23:45.223Z,194
2023-03-26T00:24:54.396Z,257
2023-03-26T00:26:03.563Z,216
2023-03-26T00:27:12.741Z,249
2023-03-26T00:28:21.909Z,308
2023-03-26T00:29:31.144Z,169
2023-03-26T00:30:40.258Z,178
2023-03-26T00:31:49.497Z,169
2023-03-26T00:32:57.629Z,140
2023-03-26T00:34:05.900Z,196
2023-03-26T00:35:14.014Z,217
2023-03-26T00:36:22.232Z,164
2023-03-26T00:37:31.430Z,190
2023-03-26T00:38:40.646Z,199
2023-03-26T00:39:49.782Z,177
2023-03-26T00:40:59.047Z,184
2023-03-26T00:42:08.144Z,185
2023-03-26T00:43:17.225Z,193
2023-03-26T00:44:26.474Z,149
2023-03-26T00:45:35.576Z,147
2023-03-26T00:46:44.867Z,216
2023-03-26T00:47:53.915Z,159
2023-03-26T00:49:03.220Z,152
2023-03-26T00:50:12.310Z,155
2023-03-26T00:51:20.454Z,209
2023-03-26T00:52:29.737Z,184
2023-03-26T00:54:48.039Z,159
2023-03-26T00:55:57.145Z,203
2023-03-26T00:57:06.411Z,161
2023-03-26T00:58:15.494Z,180
2023-03-26T00:59:24.667Z,195
2023-03-26T01:00:32.857Z,186
2023-03-26T01:01:41.125Z,194
2023-03-26T01:02:50.239Z,204
2023-03-26T01:03:58.420Z,217
2023-03-26T01:05:06.651Z,182
2023-03-26T01:06:15.778Z,231
2023-03-26T01:07:24.942Z,221
2023-03-26T01:08:34.139Z,173
2023-03-26T01:09:43.365Z,164
2023-03-26T01:10:52.472Z,209
2023-03-26T01:12:01.634Z,181
2023-03-26T01:13:10.809Z,212
2023-03-26T01:14:19.972Z,179
2023-03-26T01:15:29.147Z,179
2023-03-26T01:16:38.336Z,198
2023-03-26T01:17:47.487Z,165
2023-03-26T01:18:56.727Z,200
2023-03-26T01:20:04.891Z,201
2023-03-26T01:21:14.160Z,214
2023-03-26T01:22:23.271Z,177
2023-03-26T01:23:32.433Z,201
2023-03-26T01:24:41.624Z,205
2023-03-26T01:25:50.722Z,179
2023-03-26T01:26:59.898Z,201
2023-03-26T01:28:08.107Z,212
2023-03-26T01:29:16.282Z,163
2023-03-26T01:30:24.481Z,173
2023-03-26T01:31:32.918Z,165
2023-03-26T01:32:41.832Z,203
2023-03-26T01:33:51.051Z,187
2023-03-26T01:35:00.186Z,188
2023-03-26T01:36:09.342Z,190
2023-03-26T01:37:18.519Z,201
2023-03-26T01:38:27.767Z,200
2023-03-26T01:40:46.044Z,211
2023-03-26T01:41:55.266Z,217
2023-03-26T01:43:04.376Z,216
2023-03-26T01:45:22.720Z,230
2023-03-26T01:46:30.933Z,188
2023-03-26T01:47:39.114Z,194
2023-03-26T01:48:48.284Z,188
2023-03-26T01:49:57.668Z,190
2023-03-26T01:51:06.705Z,197
2023-03-26T01:52:15.791Z,200
2023-03-26T01:53:24.970Z,199
2023-03-26T01:54:34.153Z,187
2023-03-26T01:55:43.321Z,216
2023-03-26T01:56:51.584Z,238
2023-03-26T01:58:00.676Z,185
2023-03-26T01:59:09.925Z,157
2023-03-26T02:00:18.054Z,181
2023-03-26T02:01:26.238Z,181
2023-03-26T02:02:35.403Z,146
2023-03-26T02:03:44.592Z,179
2023-03-26T02:04:53.761Z,206
2023-03-26T02:06:02.930Z,193
2023-03-26T02:07:12.113Z,202
2023-03-26T02:08:21.429Z,186
2023-03-26T02:09:30.450Z,172
2023-03-26T02:10:39.676Z,181
2023-03-26T02:11:48.795Z,169
2023-03-26T02:12:57.959Z,159
2023-03-26T02:14:07.144Z,196
2023-03-26T02:15:16.325Z,181
2023-03-26T02:16:24.496Z,182
2023-03-26T02:17:33.679Z,182
2023-03-26T02:18:42.872Z,183
2023-03-26T02:19:52.018Z,189
2023-03-26T02:21:01.188Z,179
2023-03-26T02:22:10.360Z,170
2023-03-26T02:23:19.542Z,180
2023-03-26T02:24:27.725Z,185
2023-03-26T02:25:35.911Z,160
2023-03-26T02:26:45.091Z,171
2023-03-26T02:27:54.262Z,160
2023-03-26T02:29:03.474Z,171
2023-03-26T02:30:12.604Z,134
2023-03-26T02:31:21.776Z,149
2023-03-26T02:32:31.052Z,175
2023-03-26T02:33:40.113Z,196
2023-03-26T02:34:49.302Z,169
2023-03-26T02:35:58.497Z,155
2023-03-26T02:37:07.650Z,224
2023-03-26T02:38:16.827Z,163
2023-03-26T02:39:25.990Z,164
2023-03-26T02:40:34.170Z,186
2023-03-26T02:41:43.341Z,185
2023-03-26T02:42:52.509Z,158
2023-03-26T02:44:01.694Z,169
2023-03-26T02:45:10.854Z,161
2023-03-26T02:46:20.032Z,176
2023-03-26T02:47:29.202Z,180
2023-03-26T02:48:37.425Z,156
2023-03-26T02:49:45.602Z,185
2023-03-26T02:50:54.773Z,165
2023-03-26T02:52:02.954Z,160
2023-03-26T02:53:11.150Z,168
2023-03-26T02:54:20.315Z,156
2023-03-26T02:55:29.488Z,173
2023-03-26T02:56:38.661Z,181
2023-03-26T02:57:47.842Z,163
2023-03-26T02:58:57.028Z,163
2023-03-26T03:00:06.186Z,183
2023-03-26T03:01:15.351Z,167
2023-03-26T03:02:24.623Z,170
2023-03-26T03:03:33.722Z,183
2023-03-26T03:04:42.897Z,169
2023-03-26T03:05:52.044Z,194
2023-03-26T03:07:01.220Z,179
2023-03-26T03:08:09.394Z,174
2023-03-26T03:09:18.579Z,193
2023-03-26T03:10:27.833Z,166
2023-03-26T03:11:36.920Z,189
2023-03-26T03:12:46.093Z,168
2023-03-26T03:13:55.291Z,167
2023-03-26T03:15:04.443Z,163
2023-03-26T03:16:12.657Z,152
2023-03-26T03:17:20.838Z,161
2023-03-26T03:18:29.029Z,172
2023-03-26T03:19:37.207Z,168
2023-03-26T03:20:46.389Z,185
2023-03-26T03:21:55.590Z,190
2023-03-26T03:23:04.731Z,163
2023-03-26T03:24:13.941Z,158
2023-03-26T03:25:23.129Z,168
2023-03-26T03:26:32.255Z,156
2023-03-26T03:27:41.419Z,146
2023-03-26T03:28:50.592Z,178
2023-03-26T03:29:59.770Z,182
2023-03-26T03:31:08.930Z,165
2023-03-26T03:32:18.103Z,128
2023-03-26T03:33:27.276Z,173
2023-03-26T03:34:35.478Z,159
2023-03-26T03:35:44.640Z,165
2023-03-26T03:36:53.808Z,172
2023-03-26T03:38:03.048Z,177
2023-03-26T03:39:12.178Z,163
2023-03-26T03:40:21.339Z,156
2023-03-26T03:41:30.513Z,169
2023-03-26T03:42:38.752Z,165
2023-03-26T03:43:46.891Z,148
2023-03-26T03:44:55.087Z,157
2023-03-26T03:46:03.291Z,148
2023-03-26T03:47:12.441Z,166
2023-03-26T03:48:21.615Z,159
2023-03-26T03:50:39.948Z,160
2023-03-26T03:51:49.130Z,149
2023-03-26T03:52:58.304Z,168
2023-03-26T03:54:07.479Z,164
2023-03-26T03:55:16.651Z,173
2023-03-26T03:56:25.817Z,169
2023-03-26T03:57:34.998Z,186
2023-03-26T03:58:44.157Z,156
2023-03-26T03:59:53.331Z,167
2023-03-26T04:01:01.523Z,151
2023-03-26T04:02:10.698Z,146
2023-03-26T04:03:19.872Z,157
2023-03-26T04:04:29.247Z,164
2023-03-26T04:05:38.215Z,176
2023-03-26T04:06:47.383Z,183
2023-03-26T04:07:56.579Z,169
2023-03-26T04:09:05.730Z,162
2023-03-26T04:10:13.949Z,135
2023-03-26T04:11:23.151Z,184
2023-03-26T04:12:31.298Z,176
2023-03-26T04:13:39.483Z,185
2023-03-26T04:14:48.659Z,168
2023-03-26T04:15:57.856Z,159
2023-03-26T04:17:06.991Z,183
2023-03-26T04:18:16.169Z,172
2023-03-26T04:19:25.347Z,149
2023-03-26T04:20:34.523Z,142
2023-03-26T04:21:43.685Z,173
2023-03-26T04:22:52.882Z,153
2023-03-26T04:24:02.044Z,172
2023-03-26T04:25:11.229Z,120
2023-03-26T04:26:20.391Z,159
2023-03-26T04:27:29.570Z,163
2023-03-26T04:28:37.737Z,154
2023-03-26T04:29:46.924Z,159
2023-03-26T04:30:56.082Z,159
2023-03-26T04:32:05.267Z,185
2023-03-26T04:33:14.435Z,152
2023-03-26T04:34:23.604Z,184
2023-03-26T04:35:32.870Z,127
2023-03-26T04:36:40.970Z,175
2023-03-26T04:37:49.183Z,150
2023-03-26T04:38:58.372Z,184
2023-03-26T04:40:07.504Z,174
2023-03-26T04:41:16.681Z,184
2023-03-26T04:42:25.858Z,145
2023-03-26T04:43:35.026Z,196
2023-03-26T04:44:44.183Z,154
2023-03-26T04:45:53.372Z,207
2023-03-26T04:47:02.556Z,171
2023-03-26T04:48:11.719Z,158
2023-03-26T04:49:20.877Z,163
2023-03-26T04:50:30.060Z,207
2023-03-26T04:51:39.254Z,132
2023-03-26T04:52:47.423Z,146
2023-03-26T04:53:56.598Z,175
2023-03-26T04:55:05.771Z,183
2023-03-26T04:56:14.936Z,166
2023-03-26T04:57:24.103Z,182
2023-03-26T04:58:33.537Z,191
2023-03-26T04:59:42.467Z,209
2023-03-26T05:00:51.692Z,185
2023-03-26T05:01:59.820Z,169
2023-03-26T05:03:08.030Z,194
2023-03-26T05:05:25.431Z,158
2023-03-26T05:06:33.596Z,174
2023-03-26T05:07:41.849Z,169
2023-03-26T05:08:49.974Z,164
2023-03-26T05:09:58.139Z,164
2023-03-26T05:11:07.314Z,184
2023-03-26T05:12:16.475Z,180
2023-03-26T05:13:25.654Z,160
2023-03-26T05:14:34.829Z,149
2023-03-26T05:15:44.014Z,157
2023-03-26T05:16:53.230Z,170
2023-03-26T05:18:02.358Z,167
2023-03-26T05:19:11.517Z,185
2023-03-26T05:20:20.709Z,159
2023-03-26T05:21:29.873Z,152
2023-03-26T05:22:39.033Z,164
2023-03-26T05:23:48.218Z,157
2023-03-26T05:24:56.397Z,156
2023-03-26T05:26:05.564Z,146
2023-03-26T05:27:14.748Z,167
2023-03-26T05:28:23.921Z,157
2023-03-26T05:29:33.098Z,194
2023-03-26T05:30:42.251Z,160
2023-03-26T05:31:51.444Z,172
2023-03-26T05:32:59.630Z,169
2023-03-26T05:34:07.826Z,185
2023-03-26T05:35:16.997Z,168
2023-03-26T05:36:26.170Z,152
2023-03-26T05:37:35.336Z,169
2023-03-26T05:38:43.531Z,156
2023-03-26T05:39:51.720Z,156
2023-03-26T05:41:00.900Z,204
2023-03-26T05:42:10.079Z,180
2023-03-26T05:43:19.239Z,173
2023-03-26T05:44:28.407Z,161
2023-03-26T05:45:37.631Z,168
2023-03-26T05:46:46.790Z,167
2023-03-26T05:47:54.963Z,166
2023-03-26T05:49:04.126Z,183
2023-03-26T05:50:13.296Z,163
2023-03-26T05:51:22.470Z,156
2023-03-26T05:52:31.635Z,174
2023-03-26T05:53:40.825Z,165
2023-03-26T05:54:50.001Z,165
2023-03-26T05:55:59.166Z,152
2023-03-26T05:57:08.325Z,169
2023-03-26T05:58:17.505Z,169
2023-03-26T05:59:26.685Z,148
2023-03-26T06:00:35.845Z,160
2023-03-26T06:01:45.024Z,162
2023-03-26T06:02:53.222Z,177
2023-03-26T06:04:01.397Z,151
2023-03-26T06:05:10.630Z,172
2023-03-26T06:06:18.811Z,176
2023-03-26T06:07:26.959Z,184
2023-03-26T06:08:36.128Z,160
2023-03-26T06:09:45.304Z,168
2023-03-26T06:10:54.644Z,174
2023-03-26T06:12:03.648Z,154
2023-03-26T06:13:12.832Z,174
2023-03-26T06:14:21.992Z,182
2023-03-26T06:15:31.175Z,177
2023-03-26T06:16:40.358Z,177
2023-03-26T06:17:49.538Z,154
2023-03-26T06:18:58.705Z,155
2023-03-26T06:20:07.861Z,169
2023-03-26T06:21:17.043Z,170
2023-03-26T06:22:25.261Z,166
2023-03-26T06:23:34.396Z,146
2023-03-26T06:24:43.569Z,182
2023-03-26T06:25:52.751Z,182
2023-03-26T06:27:01.915Z,184
2023-03-26T06:28:11.095Z,183
2023-03-26T06:29:20.253Z,182
2023-03-26T06:30:28.453Z,183
2023-03-26T06:31:36.646Z,183
2023-03-26T06:32:45.872Z,181
2023-03-26T06:33:54.987Z,185
2023-03-26T06:35:03.180Z,185
2023-03-26T06:36:11.361Z,185
2023-03-26T06:37:20.568Z,185
2023-03-26T06:38:29.705Z,186
2023-03-26T06:39:38.883Z,185
2023-03-26T06:40:48.061Z,185
2023-03-26T06:41:57.349Z,185
2023-03-26T06:43:06.431Z,187
2023-03-26T06:44:15.580Z,185
2023-03-26T06:45:24.747Z,185
2023-03-26T06:46:33.938Z,185
2023-03-26T06:47:43.097Z,185
2023-03-26T06:48:52.268Z,186
2023-03-26T06:50:01.445Z,185
2023-03-26T06:51:09.674Z,186
2023-03-26T06:52:18.798Z,186
2023-03-26T06:53:27.971Z,184
2023-03-26T06:54:37.150Z,166
2023-03-26T06:55:46.321Z,167
2023-03-26T06:56:55.536Z,148
2023-03-26T06:58:04.719Z,139
2023-03-26T06:59:12.853Z,149
2023-03-26T07:00:21.031Z,163
2023-03-26T07:01:29.243Z,161
2023-03-26T07:02:37.416Z,143
2023-03-26T07:03:46.709Z,154
2023-03-26T07:04:55.784Z,141
2023-03-26T07:06:05.182Z,146
2023-03-26T07:07:14.126Z,131
2023-03-26T07:08:23.291Z,137
2023-03-26T07:09:32.494Z,142
2023-03-26T07:10:41.644Z,122
2023-03-26T07:11:50.876Z,129
2023-03-26T07:13:00.032Z,134
2023-03-26T07:14:09.163Z,160
2023-03-26T07:15:18.343Z,160
2023-03-26T07:16:27.504Z,161
2023-03-26T07:17:35.771Z,130
2023-03-26T07:18:44.901Z,183
2023-03-26T07:19:54.031Z,180
2023-03-26T07:21:03.259Z,180
2023-03-26T07:22:12.377Z,180
2023-03-26T07:23:21.598Z,176
2023-03-26T07:24:30.718Z,176
2023-03-26T07:25:38.916Z,176
2023-03-26T07:26:47.148Z,177
2023-03-26T07:27:56.276Z,177
2023-03-26T07:29:04.475Z,176
2023-03-26T07:30:12.694Z,176
2023-03-26T07:31:21.833Z,176
2023-03-26T07:32:31.004Z,163
2023-03-26T07:33:40.237Z,143
2023-03-26T07:34:49.449Z,154
2023-03-26T07:35:58.535Z,153
2023-03-26T07:37:07.705Z,127
2023-03-26T07:38:16.908Z,112
2023-03-26T07:39:26.048Z,151
2023-03-26T07:40:35.257Z,130
2023-03-26T07:41:44.383Z,126
2023-03-26T07:42:53.565Z,125
2023-03-26T07:44:02.805Z,126
2023-03-26T07:45:10.913Z,126
2023-03-26T07:46:20.082Z,125
2023-03-26T07:47:29.332Z,126
2023-03-26T07:48:38.439Z,105
2023-03-26T07:49:47.665Z,102
2023-03-26T07:50:56.797Z,102
2023-03-26T07:52:05.987Z,72
2023-03-26T07:53:14.168Z,72
2023-03-26T07:54:22.406Z,79
2023-03-26T07:55:31.507Z,80
2023-03-26T07:56:40.683Z,79
2023-03-26T07:57:48.940Z,79
2023-03-26T07:58:57.063Z,79
2023-03-26T08:00:06.282Z,80
2023-03-26T08:01:15.394Z,78
2023-03-26T08:02:24.587Z,79
2023-03-26T08:03:33.785Z,55
2023-03-26T08:04:42.936Z,55
2023-03-26T08:05:52.150Z,55
2023-03-26T08:07:01.276Z,51
2023-03-26T08:08:10.436Z,30
2023-03-26T08:09:19.614Z,40
2023-03-26T08:10:28.791Z,39
2023-03-26T08:11:37.960Z,40
2023-03-26T08:12:47.142Z,39
2023-03-26T08:13:55.325Z,45
2023-03-26T08:15:04.483Z,45
2023-03-26T08:16:13.664Z,45
2023-03-26T08:17:22.871Z,45
2023-03-26T08:18:32.008Z,65
2023-03-26T08:19:41.173Z,65
2023-03-26T08:20:50.356Z,66
2023-03-26T08:21:58.543Z,65
2023-03-26T08:23:06.739Z,65
2023-03-26T08:24:14.926Z,65
2023-03-26T08:25:23.118Z,65
2023-03-26T08:26:32.289Z,65
2023-03-26T08:27:41.595Z,52
2023-03-26T08:28:50.662Z,52
2023-03-26T08:29:59.880Z,63
2023-03-26T08:31:09.033Z,62
2023-03-26T08:32:18.250Z,57
2023-03-26T08:33:27.421Z,56
2023-03-26T08:34:36.480Z,57
2023-03-26T08:35:45.799Z,57
2023-03-26T08:36:54.921Z,56
2023-03-26T08:38:04.119Z,57
2023-03-26T08:39:13.177Z,96
2023-03-26T08:40:21.380Z,94
2023-03-26T08:41:30.643Z,96
2023-03-26T08:42:39.719Z,95
2023-03-26T08:43:48.909Z,94
2023-03-26T08:44:58.083Z,96
2023-03-26T08:46:07.234Z,95
2023-03-26T08:47:16.478Z,95
2023-03-26T08:48:25.589Z,96
2023-03-26T08:49:34.750Z,95
2023-03-26T08:50:43.949Z,76
2023-03-26T08:51:52.122Z,75
2023-03-26T08:53:00.311Z,72
2023-03-26T08:54:09.483Z,66
2023-03-26T08:55:17.670Z,61
2023-03-26T08:56:25.996Z,62
2023-03-26T08:57:35.030Z,61
2023-03-26T08:58:44.206Z,90
2023-03-26T08:59:53.383Z,90
2023-03-26T09:01:02.557Z,90
2023-03-26T09:02:11.711Z,89
2023-03-26T09:03:21.010Z,86
2023-03-26T09:04:30.192Z,85
2023-03-26T09:05:39.251Z,85
2023-03-26T09:06:48.431Z,86
2023-03-26T09:07:57.586Z,55
2023-03-26T09:09:06.761Z,33
2023-03-26T09:10:15.919Z,68
2023-03-26T09:11:24.221Z,69
2023-03-26T09:12:33.531Z,81
2023-03-26T09:13:42.482Z,86
2023-03-26T09:14:51.663Z,92
2023-03-26T09:16:00.882Z,87
2023-03-26T09:17:10.002Z,12
2023-03-26T09:18:19.194Z,63
2023-03-26T09:19:27.356Z,76
2023-03-26T09:20:35.562Z,77
2023-03-26T09:21:44.776Z,109
2023-03-26T09:22:52.994Z,109
2023-03-26T09:24:01.093Z,102
2023-03-26T09:25:10.267Z,97
2023-03-26T09:26:19.578Z,118
2023-03-26T09:27:28.623Z,183
2023-03-26T09:28:37.791Z,129
2023-03-26T09:29:46.953Z,110
2023-03-26T09:30:56.132Z,97
2023-03-26T09:32:05.306Z,116
2023-03-26T09:33:14.509Z,138
2023-03-26T09:34:23.660Z,122
2023-03-26T09:35:32.815Z,115
2023-03-26T09:36:41.974Z,103
2023-03-26T09:37:51.171Z,97
2023-03-26T09:39:00.342Z,127
2023-03-26T09:40:08.529Z,112
2023-03-26T09:41:17.692Z,114
2023-03-26T09:42:26.889Z,90
2023-03-26T09:43:36.052Z,82
2023-03-26T09:44:45.292Z,103
2023-03-26T09:45:54.399Z,76
2023-03-26T09:47:02.589Z,132
2023-03-26T09:48:10.774Z,103
2023-03-26T09:49:19.935Z,123
2023-03-26T09:50:29.114Z,109
2023-03-26T09:51:37.304Z,120
2023-03-26T09:52:45.556Z,133
2023-03-26T09:53:54.752Z,103
2023-03-26T09:55:03.840Z,82
2023-03-26T09:56:13.019Z,132
2023-03-26T09:57:22.176Z,95
2023-03-26T09:58:31.359Z,115
2023-03-26T09:59:40.542Z,120
2023-03-26T10:00:49.700Z,145
2023-03-26T10:01:58.881Z,117
2023-03-26T10:03:08.050Z,138
2023-03-26T10:04:17.225Z,151
2023-03-26T10:05:26.399Z,117
2023-03-26T10:06:35.584Z,159
2023-03-26T10:07:43.758Z,129
2023-03-26T10:08:52.932Z,134
2023-03-26T10:10:02.093Z,131
2023-03-26T10:11:11.267Z,131
2023-03-26T10:12:20.441Z,141
2023-03-26T10:13:29.615Z,140
2023-03-26T10:14:38.786Z,149
2023-03-26T10:15:47.045Z,106
2023-03-26T10:16:55.162Z,92
2023-03-26T10:18:04.338Z,86
2023-03-26T10:19:13.543Z,129
2023-03-26T10:20:22.747Z,87
2023-03-26T10:21:31.949Z,80
2023-03-26T10:22:41.038Z,84
2023-03-26T10:23:50.216Z,84
2023-03-26T10:24:59.382Z,109
2023-03-26T10:26:08.603Z,88
2023-03-26T10:27:17.730Z,98
2023-03-26T10:28:26.894Z,101
2023-03-26T10:29:36.073Z,82
2023-03-26T10:30:45.249Z,146
2023-03-26T10:31:53.442Z,165
2023-03-26T10:33:02.598Z,163
2023-03-26T10:34:11.800Z,130
2023-03-26T10:35:20.962Z,157
2023-03-26T10:36:30.136Z,177
2023-03-26T10:37:39.356Z,157
2023-03-26T10:38:48.471Z,178
2023-03-26T10:39:56.654Z,121
2023-03-26T10:41:04.849Z,126
2023-03-26T10:42:13.061Z,120
2023-03-26T10:43:21.258Z,91
2023-03-26T10:44:30.397Z,72
2023-03-26T10:45:39.570Z,95
2023-03-26T10:46:48.737Z,83
2023-03-26T10:47:57.910Z,75
2023-03-26T10:49:07.081Z,84
2023-03-26T10:50:16.263Z,84
2023-03-26T10:51:25.438Z,91
2023-03-26T10:52:34.603Z,90
2023-03-26T10:53:43.782Z,87
2023-03-26T10:54:52.967Z,117
2023-03-26T10:56:02.120Z,106
2023-03-26T10:57:11.292Z,99
2023-03-26T10:58:19.485Z,123
2023-03-26T10:59:28.662Z,127
2023-03-26T11:00:37.835Z,123
2023-03-26T11:01:46.999Z,129
2023-03-26T11:02:56.177Z,114
2023-03-26T11:04:05.344Z,135
2023-03-26T11:05:14.517Z,101
2023-03-26T11:06:22.702Z,111
2023-03-26T11:07:30.905Z,121
2023-03-26T11:08:40.082Z,122
2023-03-26T11:09:48.284Z,98
2023-03-26T11:10:56.457Z,100
2023-03-26T11:12:05.643Z,110
2023-03-26T11:13:14.805Z,109
2023-03-26T11:14:23.977Z,57
2023-03-26T11:15:33.232Z,57
2023-03-26T11:16:42.328Z,58
2023-03-26T11:17:51.492Z,106
2023-03-26T11:19:00.665Z,103
2023-03-26T11:20:09.827Z,90
2023-03-26T11:21:19.044Z,111
2023-03-26T11:22:28.187Z,109
2023-03-26T11:23:37.505Z,91
2023-03-26T11:24:46.598Z,71
2023-03-26T11:25:55.765Z,67
2023-03-26T11:27:03.929Z,47
2023-03-26T11:28:13.158Z,58
2023-03-26T11:29:22.260Z,57
2023-03-26T11:30:31.505Z,58
2023-03-26T11:31:40.592Z,58
2023-03-26T11:32:49.774Z,58
2023-03-26T11:33:58.183Z,57
2023-03-26T11:35:06.139Z,56
2023-03-26T11:36:14.333Z,58
2023-03-26T11:37:22.516Z,51
2023-03-26T11:38:31.705Z,52
2023-03-26T11:39:40.852Z,51
2023-03-26T11:40:50.150Z,52
2023-03-26T11:41:59.260Z,52
2023-03-26T11:43:08.382Z,52
2023-03-26T11:44:17.548Z,51
2023-03-26T11:45:26.720Z,51
2023-03-26T11:46:36.026Z,51
2023-03-26T11:47:45.083Z,57
2023-03-26T11:48:54.306Z,57
2023-03-26T11:51:12.609Z,57
2023-03-26T11:52:20.780Z,57
2023-03-26T11:53:29.959Z,58
2023-03-26T11:54:39.123Z,58
2023-03-26T11:55:48.292Z,58
2023-03-26T11:56:57.482Z,307
2023-03-26T11:58:06.646Z,340
2023-03-26T11:59:15.812Z,12
2023-03-26T12:00:25.082Z,2
2023-03-26T12:01:33.182Z,1
2023-03-26T12:02:41.366Z,0
2023-03-26T12:03:50.539Z,336
2023-03-26T12:04:59.710Z,334
2023-03-26T12:06:07.915Z,319
2023-03-26T12:07:16.095Z,336
2023-03-26T12:08:25.257Z,341
2023-03-26T12:09:34.432Z,313
2023-03-26T12:10:43.663Z,325
2023-03-26T12:11:52.792Z,336
2023-03-26T12:13:01.960Z,336
2023-03-26T12:14:11.122Z,324
2023-03-26T12:15:20.347Z,329
2023-03-26T12:16:29.471Z,328
2023-03-26T12:17:38.643Z,334
2023-03-26T12:18:47.809Z,0
2023-03-26T12:19:56.997Z,333
2023-03-26T12:21:06.207Z,340
2023-03-26T12:23:23.522Z,308
2023-03-26T12:24:32.693Z,318
2023-03-26T12:25:41.879Z,321
2023-03-26T12:26:51.066Z,328
2023-03-26T12:28:00.234Z,324
2023-03-26T12:29:09.391Z,301
2023-03-26T12:30:18.563Z,332
2023-03-26T12:31:26.754Z,325
2023-03-26T12:32:34.943Z,310
2023-03-26T12:33:43.127Z,298
2023-03-26T12:34:51.381Z,336
2023-03-26T12:36:00.484Z,295
2023-03-26T12:37:09.768Z,322
2023-03-26T12:38:18.857Z,323
2023-03-26T12:39:28.037Z,319
2023-03-26T12:40:37.350Z,298
2023-03-26T12:41:46.379Z,334
2023-03-26T12:42:55.811Z,323
2023-03-26T12:44:42.501Z,314
2023-03-26T12:45:13.955Z,334
2023-03-26T12:46:23.076Z,336
2023-03-26T12:47:32.274Z,342
2023-03-26T12:48:41.416Z,302
2023-03-26T12:49:49.599Z,295
2023-03-26T12:50:58.895Z,334
2023-03-26T12:53:17.131Z,317
2023-03-26T12:54:26.295Z,329
2023-03-26T12:55:35.466Z,330
2023-03-26T12:56:44.679Z,328
2023-03-26T12:57:53.904Z,310
2023-03-26T12:59:02.980Z,32
2023-03-26T13:00:12.231Z,326
2023-03-26T13:01:21.329Z,308
2023-03-26T13:02:30.681Z,0
2023-03-26T13:03:39.678Z,0
2023-03-26T13:04:47.859Z,303
2023-03-26T13:05:57.066Z,310
2023-03-26T13:07:06.238Z,36
2023-03-26T13:08:15.515Z,331
2023-03-26T13:09:24.553Z,330
2023-03-26T13:10:33.748Z,306
2023-03-26T13:11:42.908Z,12
2023-03-26T13:12:52.125Z,330
2023-03-26T13:14:00.283Z,343
2023-03-26T13:15:08.453Z,329
2023-03-26T13:16:17.706Z,24
2023-03-26T13:17:26.834Z,29
2023-03-26T13:18:35.972Z,323
2023-03-26T13:19:45.134Z,334
2023-03-26T13:20:54.447Z,340
2023-03-26T13:22:03.497Z,341
2023-03-26T13:23:12.663Z,296
2023-03-26T13:24:21.840Z,343
2023-03-26T13:25:30.993Z,339
2023-03-26T13:26:40.179Z,0
2023-03-26T13:27:49.345Z,333
2023-03-26T13:28:58.587Z,325
2023-03-26T13:30:06.721Z,325
2023-03-26T13:31:14.912Z,330
2023-03-26T13:32:24.255Z,340
2023-03-26T13:33:33.245Z,311
2023-03-26T13:34:42.431Z,325
2023-03-26T13:35:51.606Z,314
2023-03-26T13:37:00.834Z,4
2023-03-26T13:38:09.181Z,337
2023-03-26T13:39:17.161Z,305
2023-03-26T13:40:25.356Z,343
2023-03-26T13:41:33.531Z,330
2023-03-26T13:42:42.711Z,9
2023-03-26T13:43:51.888Z,24
2023-03-26T13:45:01.051Z,341
2023-03-26T13:46:10.234Z,336
2023-03-26T13:47:19.386Z,39
2023-03-26T13:48:28.574Z,327
2023-03-26T13:49:37.743Z,0
2023-03-26T13:50:46.948Z,343
2023-03-26T13:51:56.092Z,338
2023-03-26T13:53:05.263Z,328
2023-03-26T13:55:23.610Z,0
2023-03-26T13:56:31.791Z,313
2023-03-26T13:57:40.958Z,340
2023-03-26T13:58:50.135Z,340
2023-03-26T13:59:59.311Z,342
2023-03-26T14:01:08.566Z,334
2023-03-26T14:02:17.649Z,327
2023-03-26T14:03:26.833Z,302
2023-03-26T14:04:35.996Z,302
2023-03-26T14:05:44.201Z,333
2023-03-26T14:06:52.384Z,329
2023-03-26T14:08:00.575Z,325
2023-03-26T14:09:08.768Z,315
2023-03-26T14:10:17.944Z,7
2023-03-26T14:11:27.117Z,329
2023-03-26T14:12:36.285Z,326
2023-03-26T14:13:45.451Z,312
2023-03-26T14:14:54.676Z,0
2023-03-26T14:16:03.808Z,308
2023-03-26T14:17:12.986Z,305
2023-03-26T14:18:22.147Z,304
2023-03-26T14:19:31.318Z,318
2023-03-26T14:20:40.498Z,304
2023-03-26T14:21:49.658Z,324
2023-03-26T14:22:58.838Z,332
2023-03-26T14:24:07.039Z,343
2023-03-26T14:25:16.291Z,323
2023-03-26T14:26:25.392Z,313
2023-03-26T14:27:34.531Z,293
2023-03-26T14:28:43.715Z,323
2023-03-26T14:29:52.891Z,15
2023-03-26T14:31:02.052Z,317
2023-03-26T14:32:10.269Z,343
2023-03-26T14:33:18.448Z,321
2023-03-26T14:34:27.616Z,314
2023-03-26T14:35:36.801Z,328
2023-03-26T14:36:44.987Z,327
2023-03-26T14:37:53.212Z,327
2023-03-26T14:39:02.358Z,328
2023-03-26T14:40:11.528Z,0
2023-03-26T14:41:20.699Z,0
2023-03-26T14:42:29.868Z,327
2023-03-26T14:43:39.042Z,291
2023-03-26T14:44:48.194Z,14
2023-03-26T14:45:57.377Z,317
2023-03-26T14:47:06.562Z,320
2023-03-26T14:48:15.728Z,5
2023-03-26T14:49:24.899Z,9
2023-03-26T14:50:34.084Z,314
2023-03-26T14:51:43.252Z,323
2023-03-26T14:52:51.456Z,318
2023-03-26T14:54:00.600Z,11
2023-03-26T14:55:09.798Z,307
2023-03-26T14:56:18.949Z,300
2023-03-26T14:57:28.137Z,289
2023-03-26T14:58:37.297Z,0
2023-03-26T14:59:46.475Z,307
2023-03-26T15:00:55.646Z,300
2023-03-26T15:02:04.816Z,335
2023-03-26T15:03:13.980Z,339
2023-03-26T15:04:23.170Z,307
2023-03-26T15:05:32.360Z,331
2023-03-26T15:06:41.509Z,334
2023-03-26T15:07:49.708Z,329
2023-03-26T15:08:57.880Z,337
2023-03-26T15:10:07.059Z,341
2023-03-26T15:11:16.258Z,327
2023-03-26T15:12:25.410Z,315
2023-03-26T15:13:34.570Z,333
2023-03-26T15:14:43.753Z,327
2023-03-26T15:15:52.925Z,327
2023-03-26T15:17:02.136Z,316
2023-03-26T15:18:11.294Z,343
2023-03-26T15:19:20.471Z,330
2023-03-26T15:20:29.614Z,317
2023-03-26T15:21:38.793Z,328
2023-03-26T15:22:48.062Z,3
2023-03-26T15:23:56.139Z,336
2023-03-26T15:25:05.312Z,334
2023-03-26T15:26:14.489Z,319
2023-03-26T15:27:23.703Z,325
2023-03-26T15:28:31.851Z,327
2023-03-26T15:29:40.068Z,339
2023-03-26T15:30:49.229Z,324
2023-03-26T15:31:58.399Z,317
2023-03-26T15:33:07.618Z,5
2023-03-26T15:34:16.730Z,310
2023-03-26T15:35:25.994Z,316
2023-03-26T15:36:35.127Z,321
2023-03-26T15:37:44.319Z,324
2023-03-26T15:38:53.526Z,317
2023-03-26T15:40:02.593Z,325
2023-03-26T15:41:11.774Z,329
2023-03-26T15:42:21.123Z,318
2023-03-26T15:43:30.124Z,316
2023-03-26T15:44:38.299Z,315
2023-03-26T15:45:47.461Z,325
2023-03-26T15:46:56.647Z,316
2023-03-26T15:48:05.833Z,315
2023-03-26T15:49:14.996Z,322
2023-03-26T15:50:24.168Z,301
2023-03-26T15:51:33.345Z,319
2023-03-26T15:52:42.531Z,322
2023-03-26T15:53:51.687Z,5
2023-03-26T15:55:00.853Z,328
2023-03-26T15:56:10.020Z,334
2023-03-26T15:57:19.195Z,292
2023-03-26T15:58:28.365Z,325
2023-03-26T15:59:36.681Z,332
2023-03-26T16:00:45.725Z,326
2023-03-26T16:01:54.907Z,315
2023-03-26T16:03:04.076Z,331
2023-03-26T16:04:13.243Z,309
2023-03-26T16:06:31.605Z,324
2023-03-26T16:07:40.809Z,327
2023-03-26T16:08:49.952Z,325
2023-03-26T16:09:59.137Z,336